Time;durP1;ratioP1;P1;durP2;ratioP2;P2;SDS_P1;SDS_P2;PMS_P1;PMS_P2;Temp;Humidity;BMP_temperature;BMP_pressure;BME280_temperature;BME280_humidity;BME280_pressure;Samples;Min_cycle;Max_cycle;Signal;HPM_P1;HPM_P2
2022/03/27 00:02:20;;;;;;;13.77;12.00;;;9.80;99.90;;;;;;5011570;28;25076;-73
2022/03/27 00:04:46;;;;;;;15.07;11.25;;;9.80;99.90;;;;;;5030006;28;25081;-73
2022/03/27 00:07:12;;;;;;;12.75;11.43;;;9.80;99.90;;;;;;5030463;28;25123;-73
2022/03/27 00:09:38;;;;;;;15.20;11.35;;;9.80;99.90;;;;;;5035286;28;25090;-73
2022/03/27 00:12:04;;;;;;;12.93;10.45;;;9.70;99.90;;;;;;5049003;28;25061;-72
2022/03/27 00:14:30;;;;;;;12.95;10.30;;;9.80;99.90;;;;;;5029467;28;25061;-73
2022/03/27 00:16:57;;;;;;;11.50;10.38;;;9.80;99.90;;;;;;5029970;28;25087;-74
2022/03/27 00:19:23;;;;;;;15.25;12.18;;;9.70;99.90;;;;;;5028803;28;25169;-74
2022/03/27 00:21:49;;;;;;;15.68;11.50;;;9.70;99.90;;;;;;5031424;28;25097;-73
2022/03/27 00:24:15;;;;;;;13.48;12.05;;;9.60;99.90;;;;;;5017239;28;25048;-72
2022/03/27 00:26:41;;;;;;;14.38;12.15;;;9.70;99.90;;;;;;5030167;28;25079;-73
2022/03/27 00:29:07;;;;;;;14.23;12.68;;;9.80;99.90;;;;;;5020695;28;25066;-72
2022/03/27 00:31:35;;;;;;;18.45;15.60;;;9.80;99.90;;;;;;5018676;28;25166;-75
2022/03/27 00:34:02;;;;;;;15.77;14.13;;;9.70;99.90;;;;;;5025495;28;25073;-72
2022/03/27 00:36:28;;;;;;;18.83;14.80;;;9.70;99.90;;;;;;5012061;28;25069;-72
2022/03/27 00:38:54;;;;;;;19.00;15.95;;;9.70;99.90;;;;;;5029392;28;25065;-73
2022/03/27 00:41:20;;;;;;;17.20;14.98;;;9.60;99.90;;;;;;5029557;28;25083;-72
2022/03/27 00:43:46;;;;;;;18.55;15.00;;;9.60;99.90;;;;;;5029689;28;25049;-71
2022/03/27 00:46:11;;;;;;;17.55;15.00;;;9.60;99.90;;;;;;5015645;28;25111;-73
2022/03/27 00:48:37;;;;;;;20.98;15.65;;;9.70;99.90;;;;;;5009315;28;25058;-74
2022/03/27 00:51:04;;;;;;;20.00;15.55;;;9.70;99.90;;;;;;5049537;28;25104;-74
2022/03/27 00:53:30;;;;;;;15.70;13.93;;;9.70;99.90;;;;;;5037505;28;25062;-72
2022/03/27 00:55:59;;;;;;;16.38;14.48;;;9.70;99.90;;;;;;5011482;28;25063;-74
2022/03/27 00:58:24;;;;;;;18.45;15.60;;;9.80;99.90;;;;;;5022735;28;25082;-75
2022/03/27 01:01:04;;;;;;;20.70;14.85;;;9.80;99.90;;;;;;5021579;28;25096;-72
2022/03/27 01:03:31;;;;;;;18.05;15.85;;;9.80;99.90;;;;;;5034935;28;25130;-73
2022/03/27 01:05:57;;;;;;;16.25;14.43;;;9.70;99.90;;;;;;5027862;28;25058;-74
2022/03/27 01:11:21;;;;;;;14.23;12.70;;;9.70;99.90;;;;;;5048659;28;25082;-74
2022/03/27 01:13:53;;;;;;;16.85;12.77;;;9.70;99.90;;;;;;5035679;28;25147;-74
2022/03/27 01:16:43;;;;;;;16.00;13.82;;;9.70;99.90;;;;;;5011400;28;25079;-73
2022/03/27 01:19:12;;;;;;;15.88;14.25;;;9.70;99.90;;;;;;5031804;28;25060;-73
2022/03/27 01:21:41;;;;;;;15.95;13.13;;;9.70;99.90;;;;;;5028384;28;25151;-73
2022/03/27 01:24:07;;;;;;;15.43;13.82;;;9.60;99.90;;;;;;5029255;28;25077;-75
2022/03/27 01:26:33;;;;;;;14.77;13.18;;;9.60;99.90;;;;;;5021651;28;25056;-73
2022/03/27 01:28:59;;;;;;;14.80;13.13;;;9.70;99.90;;;;;;5010072;28;25088;-73
2022/03/27 01:31:25;;;;;;;15.27;13.68;;;9.70;99.90;;;;;;5026960;28;25151;-72
2022/03/27 01:33:51;;;;;;;17.13;14.02;;;9.60;99.90;;;;;;5032685;28;25088;-73
2022/03/27 01:36:31;;;;;;;17.55;14.98;;;9.60;99.90;;;;;;5015470;28;25074;-72
2022/03/27 01:38:57;;;;;;;14.65;12.88;;;9.60;99.90;;;;;;5035115;28;25092;-72
2022/03/27 01:41:23;;;;;;;16.45;14.32;;;9.60;99.90;;;;;;5038304;28;25075;-72
2022/03/27 01:43:49;;;;;;;15.38;13.77;;;9.60;99.90;;;;;;5044678;28;25065;-73
2022/03/27 01:46:15;;;;;;;15.85;14.15;;;9.70;99.90;;;;;;5031082;28;25061;-73
2022/03/27 01:48:41;;;;;;;14.80;12.70;;;9.70;99.90;;;;;;5033237;28;25047;-72
2022/03/27 01:51:08;;;;;;;16.27;12.15;;;9.70;99.90;;;;;;5032265;28;25068;-73
2022/03/27 01:53:37;;;;;;;13.57;12.18;;;9.70;99.90;;;;;;5033164;28;25095;-72
2022/03/27 01:56:05;;;;;;;15.30;13.02;;;9.70;99.90;;;;;;5029512;28;25043;-72
2022/03/27 01:58:31;;;;;;;14.02;12.38;;;9.70;99.90;;;;;;5013476;28;25124;-72
2022/03/27 02:00:56;;;;;;;15.13;13.55;;;9.70;99.90;;;;;;5012975;28;25130;-72
2022/03/27 02:03:27;;;;;;;13.55;11.98;;;9.70;99.90;;;;;;5040433;28;25074;-73
2022/03/27 02:05:53;;;;;;;13.98;11.90;;;9.80;99.90;;;;;;5034097;28;25068;-72
2022/03/27 02:08:19;;;;;;;13.77;12.35;;;9.80;99.90;;;;;;5033967;28;25062;-72
2022/03/27 02:10:44;;;;;;;13.65;12.15;;;9.70;99.90;;;;;;5033790;28;25072;-73
2022/03/27 02:13:14;;;;;;;14.38;12.00;;;9.60;99.90;;;;;;5033920;28;25097;-72
2022/03/27 02:15:40;;;;;;;13.68;11.88;;;9.50;99.90;;;;;;5035443;28;25068;-73
2022/03/27 02:18:06;;;;;;;14.52;12.15;;;9.50;99.90;;;;;;5043866;28;25170;-72
2022/03/27 02:20:31;;;;;;;14.18;12.50;;;9.50;99.90;;;;;;5041687;28;25105;-73
2022/03/27 02:22:57;;;;;;;19.65;12.93;;;9.50;99.90;;;;;;5057036;28;25115;-70
2022/03/27 02:25:23;;;;;;;17.38;13.23;;;9.50;99.90;;;;;;5040341;28;25077;-72
2022/03/27 02:27:49;;;;;;;15.45;12.75;;;9.60;99.90;;;;;;5058230;28;25051;-72
2022/03/27 02:30:15;;;;;;;15.13;13.35;;;9.50;99.90;;;;;;5055398;28;25061;-71
2022/03/27 02:32:41;;;;;;;14.90;13.02;;;9.50;99.90;;;;;;5041084;28;25155;-73
2022/03/27 02:35:06;;;;;;;16.52;12.85;;;9.50;99.90;;;;;;5036640;28;25052;-71
2022/03/27 02:37:32;;;;;;;15.60;13.50;;;9.60;99.90;;;;;;5033841;28;25144;-71
2022/03/27 02:39:57;;;;;;;16.65;13.88;;;9.60;99.90;;;;;;5040192;28;25064;-71
2022/03/27 02:42:23;;;;;;;14.65;12.98;;;9.50;99.90;;;;;;5019754;28;25099;-70
2022/03/27 02:44:49;;;;;;;15.10;13.48;;;9.50;99.90;;;;;;5034787;28;25151;-73
2022/03/27 02:47:15;;;;;;;17.88;15.70;;;9.50;99.90;;;;;;5033617;28;25075;-74
2022/03/27 02:49:40;;;;;;;16.92;14.80;;;9.50;99.90;;;;;;5032655;28;25069;-71
2022/03/27 02:52:06;;;;;;;18.10;14.63;;;9.50;99.90;;;;;;5015574;28;24686;-73
2022/03/27 02:54:31;;;;;;;16.83;14.70;;;9.50;99.90;;;;;;5039205;28;25056;-75
2022/03/27 02:56:57;;;;;;;17.83;15.35;;;9.60;99.90;;;;;;5055290;28;25083;-76
2022/03/27 02:59:23;;;;;;;19.50;15.93;;;9.50;99.90;;;;;;5049194;28;25063;-73
2022/03/27 03:01:48;;;;;;;18.33;16.02;;;9.40;99.90;;;;;;5040056;28;25061;-76
2022/03/27 03:04:15;;;;;;;21.13;17.83;;;9.40;99.90;;;;;;5050088;28;25063;-76
2022/03/27 03:06:42;;;;;;;24.70;19.65;;;9.30;99.90;;;;;;5055668;28;25048;-76
2022/03/27 03:09:08;;;;;;;21.38;17.95;;;9.40;99.90;;;;;;5052014;28;25061;-74
2022/03/27 03:11:34;;;;;;;22.48;18.52;;;9.30;99.90;;;;;;5035923;28;25053;-75
2022/03/27 03:13:59;;;;;;;23.27;16.63;;;9.20;99.90;;;;;;5052716;28;25056;-75
2022/03/27 03:16:26;;;;;;;25.48;19.00;;;9.30;99.90;;;;;;5052253;28;25087;-73
2022/03/27 03:18:52;;;;;;;21.60;17.55;;;9.20;99.90;;;;;;5047905;28;25106;-76
2022/03/27 03:21:17;;;;;;;24.95;19.75;;;9.20;99.90;;;;;;5040798;28;25048;-76
2022/03/27 03:23:43;;;;;;;29.15;21.50;;;9.10;99.90;;;;;;5049002;28;25111;-76
2022/03/27 03:26:09;;;;;;;27.98;21.45;;;9.10;99.90;;;;;;5046155;28;25060;-75
2022/03/27 03:28:35;;;;;;;28.45;21.15;;;9.10;99.90;;;;;;5042626;28;25058;-77
2022/03/27 03:31:01;;;;;;;28.65;21.73;;;9.00;99.90;;;;;;5061037;28;25056;-74
2022/03/27 03:33:28;;;;;;;28.50;21.15;;;9.00;99.90;;;;;;5047398;28;25129;-73
2022/03/27 03:35:54;;;;;;;33.88;20.88;;;9.00;99.90;;;;;;5041175;28;25050;-76
2022/03/27 03:38:19;;;;;;;32.25;22.17;;;8.90;99.90;;;;;;5036941;28;25061;-76
2022/03/27 03:40:45;;;;;;;31.08;21.85;;;8.80;99.90;;;;;;5028066;28;25055;-75
2022/03/27 03:43:11;;;;;;;30.98;22.35;;;8.80;99.90;;;;;;5033195;28;25065;-75
2022/03/27 03:45:37;;;;;;;32.15;22.30;;;8.80;99.90;;;;;;5051156;28;25053;-74
2022/03/27 03:48:04;;;;;;;30.48;21.95;;;8.80;99.90;;;;;;5049800;28;25051;-75
2022/03/27 03:50:30;;;;;;;27.15;20.58;;;8.80;99.90;;;;;;5032378;28;25162;-76
2022/03/27 03:52:56;;;;;;;29.42;21.90;;;8.80;99.90;;;;;;5027303;28;25100;-76
2022/03/27 03:55:22;;;;;;;26.70;19.83;;;8.70;99.90;;;;;;5010628;28;25078;-74
2022/03/27 03:57:47;;;;;;;32.70;22.13;;;8.70;99.90;;;;;;5028704;28;25128;-74
2022/03/27 04:00:13;;;;;;;32.00;21.88;;;8.60;99.90;;;;;;5034645;28;25162;-75
2022/03/27 04:02:39;;;;;;;37.10;22.15;;;8.60;99.90;;;;;;5036112;28;25085;-74
2022/03/27 04:05:05;;;;;;;29.52;21.75;;;8.50;99.90;;;;;;5049973;28;25161;-74
2022/03/27 04:07:31;;;;;;;37.97;24.80;;;8.40;99.90;;;;;;5049861;28;25074;-74
2022/03/27 04:09:56;;;;;;;28.58;22.13;;;8.40;99.90;;;;;;5049459;28;25060;-75
2022/03/27 04:12:22;;;;;;;31.30;22.92;;;8.50;99.90;;;;;;5049063;28;25076;-74
2022/03/27 04:14:48;;;;;;;29.23;22.25;;;8.50;99.90;;;;;;5042345;28;25068;-74
2022/03/27 04:17:13;;;;;;;31.15;21.38;;;8.50;99.90;;;;;;5031240;28;25073;-73
2022/03/27 04:19:40;;;;;;;30.83;20.17;;;8.50;99.90;;;;;;5048792;28;25051;-74
2022/03/27 04:22:07;;;;;;;26.15;20.45;;;8.40;99.90;;;;;;5042663;28;25058;-77
2022/03/27 04:24:32;;;;;;;31.77;19.98;;;8.40;99.90;;;;;;5067676;28;25079;-76
2022/03/27 04:26:58;;;;;;;26.65;18.88;;;8.20;99.90;;;;;;5063704;28;25074;-76
2022/03/27 04:29:23;;;;;;;29.08;19.95;;;8.30;99.90;;;;;;5050811;28;25058;-75
2022/03/27 04:31:49;;;;;;;29.98;20.67;;;8.20;99.90;;;;;;5031729;28;25110;-75
2022/03/27 04:34:14;;;;;;;36.97;21.55;;;8.20;99.90;;;;;;5029518;28;25057;-74
2022/03/27 04:36:43;;;;;;;33.55;21.75;;;8.20;99.90;;;;;;5029239;28;25147;-75
2022/03/27 04:39:08;;;;;;;34.80;23.35;;;8.20;99.90;;;;;;5029281;28;25058;-74
2022/03/27 04:41:34;;;;;;;39.08;23.35;;;8.20;99.90;;;;;;5031807;28;25149;-75
2022/03/27 04:44:00;;;;;;;35.05;22.50;;;8.10;99.90;;;;;;5031991;28;25162;-72
2022/03/27 04:46:25;;;;;;;41.33;25.33;;;8.10;99.90;;;;;;5030957;28;25060;-74
2022/03/27 04:48:53;;;;;;;40.10;25.67;;;8.10;99.90;;;;;;5030176;28;25113;-73
2022/03/27 04:51:18;;;;;;;39.75;24.05;;;8.10;99.90;;;;;;5026310;28;25065;-75
2022/03/27 04:53:44;;;;;;;46.55;27.35;;;8.00;99.90;;;;;;5053436;28;25078;-74
2022/03/27 04:56:10;;;;;;;46.33;27.55;;;7.90;99.90;;;;;;5050351;28;25079;-75
2022/03/27 04:58:36;;;;;;;49.45;27.38;;;8.00;99.90;;;;;;5051554;28;25146;-74
2022/03/27 05:01:03;;;;;;;50.38;27.88;;;8.00;99.90;;;;;;5040745;28;25073;-74
2022/03/27 05:03:29;;;;;;;42.25;26.20;;;7.90;99.90;;;;;;5028455;28;25051;-73
2022/03/27 05:05:54;;;;;;;42.63;26.77;;;7.90;99.90;;;;;;5029706;28;25071;-74
2022/03/27 05:08:20;;;;;;;45.45;27.52;;;7.90;99.90;;;;;;5067254;28;25058;-75
2022/03/27 05:10:46;;;;;;;41.83;25.77;;;7.90;99.90;;;;;;5066766;28;25081;-76
2022/03/27 05:13:14;;;;;;;40.67;22.92;;;7.90;99.90;;;;;;5050940;28;25068;-76
2022/03/27 05:15:40;;;;;;;35.85;22.75;;;7.90;99.90;;;;;;5049101;28;25191;-74
2022/03/27 05:18:06;;;;;;;36.17;22.13;;;7.90;99.90;;;;;;5049075;28;25128;-75
2022/03/27 05:20:31;;;;;;;32.83;21.45;;;7.90;99.90;;;;;;5014593;28;25148;-74
2022/03/27 05:22:59;;;;;;;34.60;22.10;;;8.10;99.90;;;;;;5028192;28;25134;-74
2022/03/27 05:25:25;;;;;;;33.75;21.63;;;8.00;99.90;;;;;;5029965;28;25139;-74
2022/03/27 05:27:57;;;;;;;38.65;22.67;;;8.00;99.90;;;;;;5025536;28;25083;-74
2022/03/27 05:30:25;;;;;;;45.78;22.23;;;7.90;99.90;;;;;;5014214;28;25073;-76
2022/03/27 05:32:53;;;;;;;39.80;22.25;;;7.90;99.90;;;;;;5019091;28;25186;-77
2022/03/27 05:35:20;;;;;;;41.47;23.92;;;7.90;99.90;;;;;;5021247;28;25111;-74
2022/03/27 05:37:47;;;;;;;42.60;24.65;;;7.90;99.90;;;;;;5014173;28;25068;-76
2022/03/27 05:40:18;;;;;;;41.22;23.52;;;7.80;99.90;;;;;;5015490;28;25092;-75
2022/03/27 05:42:44;;;;;;;38.10;24.27;;;7.80;99.90;;;;;;5012716;28;25052;-76
2022/03/27 05:45:10;;;;;;;48.15;24.73;;;7.80;99.90;;;;;;5017517;28;25059;-74
2022/03/27 05:47:41;;;;;;;41.25;23.75;;;7.80;99.90;;;;;;4999643;28;25064;-75
2022/03/27 05:50:08;;;;;;;43.75;23.98;;;7.70;99.90;;;;;;5012383;28;25056;-76
2022/03/27 05:52:34;;;;;;;45.53;23.60;;;7.70;99.90;;;;;;5011705;28;25074;-75
2022/03/27 05:54:59;;;;;;;41.03;24.30;;;7.70;99.90;;;;;;5009874;28;25064;-76
2022/03/27 05:57:25;;;;;;;43.15;22.52;;;7.70;99.90;;;;;;5014950;28;25076;-74
2022/03/27 05:59:50;;;;;;;42.28;23.95;;;7.80;99.90;;;;;;5028088;28;25102;-75
2022/03/27 06:02:16;;;;;;;47.03;26.08;;;7.90;99.90;;;;;;5042514;28;25073;-74
2022/03/27 06:04:42;;;;;;;42.70;23.55;;;7.80;99.90;;;;;;5027053;28;25108;-74
2022/03/27 06:07:08;;;;;;;40.25;21.17;;;7.80;99.90;;;;;;5027413;28;25072;-76
2022/03/27 06:09:34;;;;;;;38.17;21.20;;;7.80;99.90;;;;;;5001161;28;25126;-74
2022/03/27 06:12:00;;;;;;;45.55;24.08;;;7.70;99.90;;;;;;5013949;28;25100;-76
2022/03/27 06:14:27;;;;;;;45.50;23.60;;;7.60;99.90;;;;;;5031833;28;25083;-76
2022/03/27 06:16:52;;;;;;;45.17;23.40;;;7.60;99.90;;;;;;5022250;28;25158;-75
2022/03/27 06:19:18;;;;;;;40.72;23.90;;;7.60;99.90;;;;;;5031502;28;25070;-74
2022/03/27 06:21:44;;;;;;;47.65;25.23;;;7.60;99.90;;;;;;5028007;28;25056;-74
2022/03/27 06:24:10;;;;;;;40.72;22.73;;;7.70;99.90;;;;;;5027512;28;25155;-75
2022/03/27 06:26:36;;;;;;;41.22;22.85;;;7.70;99.90;;;;;;5027476;28;25091;-74
2022/03/27 06:29:02;;;;;;;45.22;25.02;;;7.70;99.90;;;;;;5028759;28;25063;-75
2022/03/27 06:31:27;;;;;;;52.28;26.67;;;7.70;99.90;;;;;;5049074;28;25097;-74
2022/03/27 06:33:53;;;;;;;43.40;23.67;;;7.60;99.90;;;;;;5031482;28;25055;-75
2022/03/27 06:36:18;;;;;;;45.42;23.35;;;7.60;99.90;;;;;;5030671;28;25067;-76
2022/03/27 06:38:44;;;;;;;40.15;22.73;;;7.60;99.90;;;;;;5030701;28;25173;-75
2022/03/27 06:41:10;;;;;;;39.15;20.83;;;7.70;99.90;;;;;;5031298;28;25104;-73
2022/03/27 06:43:37;;;;;;;37.30;21.00;;;7.70;99.90;;;;;;5030396;28;25118;-75
2022/03/27 06:46:03;;;;;;;37.15;22.00;;;7.70;99.90;;;;;;5050059;28;25055;-77
2022/03/27 06:48:28;;;;;;;43.55;22.02;;;7.60;99.90;;;;;;5032238;28;25047;-75
2022/03/27 06:50:54;;;;;;;37.13;21.40;;;7.60;99.90;;;;;;5031268;28;25044;-74
2022/03/27 06:53:24;;;;;;;42.42;21.73;;;7.70;99.90;;;;;;5030786;28;25158;-76
2022/03/27 06:55:49;;;;;;;38.50;22.00;;;7.70;99.90;;;;;;5034209;28;25124;-77
2022/03/27 06:58:15;;;;;;;34.03;20.65;;;7.80;99.90;;;;;;5035638;28;25143;-74
2022/03/27 07:03:25;;;;;;;34.10;20.00;;;7.70;99.90;;;;;;5056156;28;25063;-76
2022/03/27 07:05:51;;;;;;;38.25;20.13;;;7.70;99.90;;;;;;5063024;28;25072;-77
2022/03/27 07:08:19;;;;;;;30.27;18.92;;;7.70;99.90;;;;;;5075042;28;25058;-75
2022/03/27 07:10:47;;;;;;;32.42;19.65;;;7.70;99.90;;;;;;5056773;28;25086;-75
2022/03/27 07:13:14;;;;;;;31.55;17.67;;;7.70;99.90;;;;;;5038677;28;25060;-74
2022/03/27 07:15:41;;;;;;;28.73;17.25;;;7.70;99.90;;;;;;5038133;28;25072;-74
2022/03/27 07:18:09;;;;;;;28.88;18.38;;;7.80;99.90;;;;;;5038984;28;25064;-74
2022/03/27 07:20:40;;;;;;;28.83;17.92;;;7.70;99.90;;;;;;5056274;28;25061;-75
2022/03/27 07:23:09;;;;;;;27.08;16.77;;;7.80;99.90;;;;;;5022723;28;25149;-74
2022/03/27 07:25:35;;;;;;;27.80;17.45;;;7.90;99.90;;;;;;5034943;28;25080;-74
2022/03/27 07:28:03;;;;;;;25.63;16.27;;;7.90;99.90;;;;;;5035729;28;25076;-73
2022/03/27 07:30:29;;;;;;;20.92;14.65;;;7.80;99.90;;;;;;5035112;28;25066;-74
2022/03/27 07:32:55;;;;;;;23.98;15.50;;;7.70;99.90;;;;;;5032586;28;25064;-73
2022/03/27 07:35:21;;;;;;;20.30;13.70;;;7.70;99.90;;;;;;5033818;28;25084;-73
2022/03/27 07:37:47;;;;;;;19.42;12.85;;;7.70;99.90;;;;;;5013542;28;25141;-75
2022/03/27 07:40:14;;;;;;;24.83;14.23;;;7.70;99.90;;;;;;5032319;28;25081;-73
2022/03/27 07:42:46;;;;;;;21.85;13.32;;;7.60;99.90;;;;;;5031835;28;25133;-74
2022/03/27 07:45:13;;;;;;;25.63;14.45;;;7.50;99.90;;;;;;5043914;28;25062;-75
2022/03/27 07:47:39;;;;;;;22.15;14.88;;;7.50;99.90;;;;;;5035320;28;25056;-77
2022/03/27 07:50:07;;;;;;;25.38;15.18;;;7.60;99.90;;;;;;5030434;28;25057;-75
2022/03/27 07:52:34;;;;;;;24.25;14.43;;;7.50;99.90;;;;;;5031307;28;25073;-74
2022/03/27 07:55:00;;;;;;;23.60;14.07;;;7.60;99.90;;;;;;5012434;28;25130;-74
2022/03/27 07:57:26;;;;;;;20.92;14.40;;;7.60;99.90;;;;;;5019033;28;25063;-75
2022/03/27 07:59:51;;;;;;;24.48;15.02;;;7.70;99.90;;;;;;5027965;28;25047;-74
2022/03/27 08:02:18;;;;;;;23.23;13.65;;;7.60;99.90;;;;;;5026698;28;25079;-76
2022/03/27 08:04:45;;;;;;;19.90;12.90;;;7.80;99.90;;;;;;5009553;28;25109;-75
2022/03/27 08:07:11;;;;;;;22.40;14.43;;;7.70;99.90;;;;;;5009266;28;25059;-74
2022/03/27 08:09:36;;;;;;;24.48;15.15;;;7.90;99.90;;;;;;5028255;28;25073;-72
2022/03/27 08:12:03;;;;;;;21.92;14.02;;;7.90;99.90;;;;;;5051216;28;24909;-75
2022/03/27 08:14:31;;;;;;;23.80;14.57;;;8.00;99.90;;;;;;5045505;28;25130;-73
2022/03/27 08:16:58;;;;;;;23.30;14.98;;;7.90;99.90;;;;;;5033731;28;25084;-74
2022/03/27 08:19:23;;;;;;;25.85;15.20;;;7.90;99.90;;;;;;5047669;28;25062;-75
2022/03/27 08:21:49;;;;;;;24.25;14.02;;;7.90;99.90;;;;;;5029436;28;25050;-72
2022/03/27 08:24:15;;;;;;;24.52;14.98;;;7.80;99.90;;;;;;5049107;28;25075;-74
2022/03/27 08:26:55;;;;;;;22.92;13.93;;;7.90;99.90;;;;;;5042412;28;25062;-75
2022/03/27 08:29:23;;;;;;;20.33;13.18;;;8.10;99.90;;;;;;5030001;28;25173;-74
2022/03/27 08:31:49;;;;;;;21.90;14.02;;;8.20;98.40;;;;;;5045706;28;25076;-75
2022/03/27 08:34:14;;;;;;;21.88;13.10;;;8.30;98.10;;;;;;5032287;28;25069;-73
2022/03/27 08:36:40;;;;;;;22.60;14.45;;;8.30;96.70;;;;;;5033964;28;25082;-74
2022/03/27 08:39:07;;;;;;;19.88;13.55;;;8.60;96.70;;;;;;5033183;28;25061;-75
2022/03/27 08:41:34;;;;;;;19.25;13.30;;;8.90;95.90;;;;;;5041170;28;25072;-74
2022/03/27 08:44:00;;;;;;;22.17;12.82;;;8.90;94.00;;;;;;5055182;28;25060;-75
2022/03/27 08:46:27;;;;;;;20.67;12.82;;;8.90;91.30;;;;;;5066492;28;25122;-75
2022/03/27 08:48:53;;;;;;;20.13;12.45;;;9.00;90.30;;;;;;5055338;28;25060;-73
2022/03/27 08:51:40;;;;;;;19.40;13.00;;;9.30;88.80;;;;;;5017403;28;25058;-73
2022/03/27 08:54:11;;;;;;;19.58;12.40;;;9.50;86.80;;;;;;5036600;28;25097;-73
2022/03/27 08:56:37;;;;;;;21.33;11.68;;;9.80;83.50;;;;;;5050588;28;25060;-74
2022/03/27 08:59:10;;;;;;;17.73;12.00;;;10.10;83.30;;;;;;5048495;28;25062;-76
2022/03/27 09:01:37;;;;;;;17.58;11.32;;;10.40;78.10;;;;;;5041838;28;25102;-74
2022/03/27 09:04:04;;;;;;;17.85;12.50;;;10.60;74.80;;;;;;5033839;28;25074;-75
2022/03/27 09:06:30;;;;;;;16.73;11.50;;;10.50;72.20;;;;;;5032145;28;25082;-72
2022/03/27 09:08:55;;;;;;;16.27;11.88;;;10.50;69.50;;;;;;5025936;28;25068;-74
2022/03/27 09:11:23;;;;;;;17.50;12.43;;;10.50;66.00;;;;;;5034053;28;25051;-73
2022/03/27 09:13:50;;;;;;;18.40;12.77;;;10.60;66.10;;;;;;5025188;28;25054;-73
2022/03/27 09:16:19;;;;;;;17.05;11.38;;;10.60;68.10;;;;;;5023252;28;25079;-73
2022/03/27 09:18:57;;;;;;;16.15;11.50;;;10.70;70.40;;;;;;5005841;28;25093;-72
2022/03/27 09:21:26;;;;;;;16.48;11.45;;;10.80;67.80;;;;;;5038645;28;25162;-75
2022/03/27 09:24:00;;;;;;;17.48;11.65;;;11.20;66.30;;;;;;5018254;28;25048;-73
2022/03/27 09:26:27;;;;;;;16.27;12.25;;;11.30;63.50;;;;;;5018131;28;25072;-73
2022/03/27 09:28:57;;;;;;;16.63;11.88;;;11.20;63.20;;;;;;5037406;28;25062;-72
2022/03/27 09:31:27;;;;;;;15.88;11.73;;;11.50;63.20;;;;;;5031215;28;25080;-74
2022/03/27 09:33:57;;;;;;;16.55;12.13;;;11.90;62.20;;;;;;5032528;28;25157;-71
2022/03/27 09:36:30;;;;;;;15.40;11.32;;;11.90;58.20;;;;;;5020814;28;25492;-72
2022/03/27 09:38:59;;;;;;;14.27;10.13;;;11.90;59.90;;;;;;5020535;28;25066;-75
2022/03/27 09:41:38;;;;;;;13.73;10.05;;;12.20;56.90;;;;;;5024627;28;25063;-72
2022/03/27 09:44:18;;;;;;;16.90;10.50;;;12.40;54.80;;;;;;5016993;28;25068;-73
2022/03/27 09:47:02;;;;;;;13.07;10.18;;;12.80;54.20;;;;;;5018157;28;25088;-72
2022/03/27 09:49:30;;;;;;;14.20;9.65;;;12.50;50.70;;;;;;5021946;28;25059;-71
2022/03/27 09:52:00;;;;;;;11.93;9.40;;;12.30;48.20;;;;;;5019901;28;25058;-72
2022/03/27 09:54:29;;;;;;;14.23;8.98;;;12.40;47.60;;;;;;5020943;28;25100;-73
2022/03/27 09:56:55;;;;;;;10.98;8.98;;;12.40;47.40;;;;;;5027974;28;25069;-72
2022/03/27 09:59:33;;;;;;;11.88;8.70;;;12.10;45.70;;;;;;5045395;28;25065;-73
2022/03/27 10:02:18;;;;;;;11.27;8.70;;;12.40;46.70;;;;;;5048365;28;25074;-74
2022/03/27 10:04:54;;;;;;;10.02;8.05;;;12.90;46.00;;;;;;5041144;28;25045;-74
2022/03/27 10:07:19;;;;;;;11.80;8.68;;;12.70;41.10;;;;;;5031668;28;25102;-72
2022/03/27 10:09:45;;;;;;;12.45;9.02;;;12.70;39.70;;;;;;5027531;28;25059;-72
2022/03/27 10:12:12;;;;;;;13.50;8.95;;;12.40;40.00;;;;;;5040470;28;25078;-75
2022/03/27 10:14:40;;;;;;;10.02;8.50;;;12.30;41.60;;;;;;5017191;28;25059;-71
2022/03/27 10:17:10;;;;;;;12.48;9.73;;;12.40;43.60;;;;;;5025960;28;25068;-71
2022/03/27 10:19:45;;;;;;;12.85;8.27;;;12.30;42.60;;;;;;5047423;28;25092;-72
2022/03/27 10:22:20;;;;;;;12.98;8.93;;;12.20;46.30;;;;;;5034436;28;25051;-73
2022/03/27 10:24:46;;;;;;;13.60;8.70;;;12.70;41.30;;;;;;5013705;28;25050;-72
2022/03/27 10:27:13;;;;;;;10.88;8.32;;;12.80;40.70;;;;;;5036936;28;25085;-71
2022/03/27 10:29:40;;;;;;;10.63;8.00;;;12.80;40.90;;;;;;5035688;28;25072;-73
2022/03/27 10:32:10;;;;;;;13.30;8.35;;;13.20;40.90;;;;;;4992758;28;25150;-73
2022/03/27 10:34:44;;;;;;;16.30;7.65;;;13.20;38.90;;;;;;5029944;28;25077;-75
2022/03/27 10:37:33;;;;;;;11.48;8.85;;;13.40;37.60;;;;;;5028837;28;25085;-72
2022/03/27 10:40:26;;;;;;;11.05;8.13;;;13.20;37.40;;;;;;5021662;28;25124;-71
2022/03/27 10:43:01;;;;;;;10.73;8.32;;;13.20;35.90;;;;;;5031924;28;25085;-71
2022/03/27 10:45:27;;;;;;;9.95;8.02;;;13.40;35.20;;;;;;5033313;28;25085;-72
2022/03/27 10:48:16;;;;;;;8.45;7.25;;;13.20;37.90;;;;;;5029379;28;25071;-73
2022/03/27 10:50:52;;;;;;;12.30;7.75;;;13.60;35.40;;;;;;5030990;28;25070;-73
2022/03/27 10:53:21;;;;;;;8.35;6.78;;;13.30;33.30;;;;;;5040416;28;25101;-72
2022/03/27 10:55:48;;;;;;;7.70;6.43;;;13.50;33.50;;;;;;5053663;28;25097;-72
2022/03/27 10:58:35;;;;;;;7.63;6.18;;;13.40;33.10;;;;;;5052943;28;25040;-73
2022/03/27 11:01:04;;;;;;;8.15;6.45;;;13.90;31.70;;;;;;5051607;28;25071;-72
2022/03/27 11:04:04;;;;;;;7.07;6.05;;;14.10;28.70;;;;;;5037785;28;25161;-73
2022/03/27 11:06:31;;;;;;;8.18;5.78;;;14.30;28.70;;;;;;5034566;28;25095;-74
2022/03/27 11:08:59;;;;;;;7.53;6.05;;;14.30;27.30;;;;;;5054466;28;25154;-72
2022/03/27 11:11:36;;;;;;;8.75;5.85;;;14.40;26.70;;;;;;5054071;28;25151;-71
2022/03/27 11:14:10;;;;;;;8.07;6.20;;;14.70;27.90;;;;;;5035830;28;25048;-71
2022/03/27 11:17:03;;;;;;;10.95;6.85;;;14.60;24.80;;;;;;5054544;28;25112;-73
2022/03/27 11:19:47;;;;;;;8.07;6.75;;;14.50;26.70;;;;;;5036542;28;25075;-72
2022/03/27 11:22:44;;;;;;;9.10;6.05;;;14.60;26.10;;;;;;5046646;28;25082;-72
2022/03/27 11:25:23;;;;;;;8.52;6.28;;;15.00;25.70;;;;;;5040964;28;25309;-71
2022/03/27 11:28:03;;;;;;;7.82;5.78;;;15.10;22.10;;;;;;5032049;28;25132;-73
2022/03/27 11:30:35;;;;;;;5.97;5.00;;;15.20;22.00;;;;;;5041995;28;25122;-71
2022/03/27 11:33:23;;;;;;;8.45;5.82;;;14.80;17.90;;;;;;5021647;28;25067;-71
2022/03/27 11:36:01;;;;;;;8.25;5.82;;;15.10;17.70;;;;;;5031410;28;25063;-71
2022/03/27 11:38:29;;;;;;;7.75;5.05;;;15.20;18.00;;;;;;5033272;28;25083;-70
2022/03/27 11:40:55;;;;;;;7.60;5.43;;;15.50;15.90;;;;;;5030784;28;25065;-72
2022/03/27 11:43:32;;;;;;;5.95;5.25;;;15.30;14.10;;;;;;5032995;28;25070;-72
2022/03/27 11:45:58;;;;;;;7.93;4.90;;;15.40;14.50;;;;;;5024290;28;25075;-73
2022/03/27 11:48:25;;;;;;;6.50;4.90;;;15.50;13.10;;;;;;5024788;28;25064;-73
2022/03/27 11:50:50;;;;;;;6.38;5.25;;;15.60;12.10;;;;;;5034059;28;25065;-74
2022/03/27 11:53:16;;;;;;;8.27;5.15;;;16.10;9.30;;;;;;5049718;28;25080;-72
2022/03/27 11:55:42;;;;;;;5.72;4.68;;;16.60;7.80;;;;;;5059241;28;25076;-73
2022/03/27 11:58:10;;;;;;;8.23;5.22;;;16.40;6.60;;;;;;5060458;28;25148;-72
2022/03/27 12:00:40;;;;;;;7.00;5.30;;;16.60;8.80;;;;;;5032415;28;25129;-73
2022/03/27 12:03:20;;;;;;;5.78;5.00;;;16.30;6.90;;;;;;5033362;28;25060;-73
2022/03/27 12:05:47;;;;;;;6.60;5.40;;;16.50;5.80;;;;;;5034935;28;25084;-70
2022/03/27 12:08:17;;;;;;;6.07;5.40;;;16.50;5.30;;;;;;5014865;28;25064;-72
2022/03/27 12:10:46;;;;;;;7.35;6.35;;;16.60;6.20;;;;;;5031133;28;25097;-71
2022/03/27 12:13:14;;;;;;;7.10;5.85;;;16.70;5.90;;;;;;5032715;28;25055;-72
2022/03/27 12:15:42;;;;;;;8.20;5.93;;;16.40;6.20;;;;;;5041260;28;25070;-73
2022/03/27 12:18:08;;;;;;;9.00;6.53;;;16.50;6.00;;;;;;5050306;28;25083;-73
2022/03/27 12:20:45;;;;;;;7.82;6.43;;;16.60;5.40;;;;;;5048617;28;25074;-73
2022/03/27 12:23:24;;;;;;;8.32;5.55;;;16.30;5.00;;;;;;5031069;28;25116;-73
2022/03/27 12:26:01;;;;;;;6.93;6.18;;;16.60;4.90;;;;;;5045718;28;25075;-72
2022/03/27 12:31:26;;;;;;;5.75;5.15;;;16.70;4.00;;;;;;5009718;28;25048;-71
2022/03/27 12:33:54;;;;;;;7.88;5.95;;;17.20;1.70;;;;;;5028130;28;25071;-71
2022/03/27 12:36:21;;;;;;;8.63;5.70;;;16.90;1.40;;;;;;5031019;28;25083;-73
2022/03/27 12:38:47;;;;;;;6.68;5.55;;;17.10;1.00;;;;;;5038023;28;25085;-71
2022/03/27 12:41:14;;;;;;;6.95;4.88;;;17.00;1.00;;;;;;5031325;28;25088;-73
2022/03/27 12:43:59;;;;;;;5.32;4.60;;;17.20;1.00;;;;;;5036920;28;25155;-73
2022/03/27 12:46:25;;;;;;;8.38;5.22;;;17.70;1.00;;;;;;5050356;28;25140;-72
2022/03/27 12:48:58;;;;;;;5.80;4.97;;;17.10;1.00;;;;;;5049078;28;25273;-73
2022/03/27 12:51:24;;;;;;;8.18;5.00;;;16.60;1.00;;;;;;5043732;28;25100;-73
2022/03/27 12:54:07;;;;;;;8.60;4.80;;;17.20;1.00;;;;;;5029092;28;25100;-71